Time;durP1;ratioP1;P1;durP2;ratioP2;P2;SDS_P1;SDS_P2;PMS_P1;PMS_P2;Temp;Humidity;BMP_temperature;BMP_pressure;BME280_temperature;BME280_humidity;BME280_pressure;Samples;Min_cycle;Max_cycle;Signal;HPM_P1;HPM_P2
2023/12/11 00:01:43;;;;;;;36.47;21.93;;;;;;;4.23;94.33;92722.06;5110458;28;20242;-72
2023/12/11 00:04:08;;;;;;;29.87;19.30;;;;;;;4.13;94.94;92734.03;5106150;28;20286;-72
2023/12/11 00:06:34;;;;;;;22.20;17.63;;;;;;;4.10;95.29;92740.47;5109402;28;20175;-72
2023/12/11 00:08:59;;;;;;;25.97;17.70;;;;;;;4.13;95.67;92739.22;5110002;28;20216;-73
2023/12/11 00:11:25;;;;;;;22.10;17.47;;;;;;;3.82;97.46;92748.28;5110606;28;20184;-72
2023/12/11 00:13:50;;;;;;;24.37;17.97;;;;;;;3.90;96.58;92753.06;5110068;28;20223;-72
2023/12/11 00:16:17;;;;;;;15.60;14.13;;;;;;;3.74;97.87;92745.31;5110231;28;20190;-72
2023/12/11 00:18:42;;;;;;;13.83;12.70;;;;;;;3.87;97.56;92756.13;5109434;28;20272;-72
2023/12/11 00:21:08;;;;;;;16.80;15.30;;;;;;;3.70;99.10;92745.00;5110142;28;21007;-72
2023/12/11 00:23:33;;;;;;;16.80;15.20;;;;;;;3.82;99.35;92743.13;5109588;28;20207;-72
2023/12/11 00:25:58;;;;;;;15.63;14.40;;;;;;;4.16;97.68;92754.22;5110497;28;20183;-71
2023/12/11 00:28:24;;;;;;;15.77;14.43;;;;;;;4.38;96.54;92752.50;5109181;28;20235;-72
2023/12/11 00:30:50;;;;;;;15.33;13.77;;;;;;;4.59;95.50;92752.53;5110208;28;20188;-71
2023/12/11 00:33:15;;;;;;;15.03;13.83;;;;;;;4.52;95.20;92759.69;5107419;28;20244;-72
2023/12/11 00:35:41;;;;;;;14.50;13.20;;;;;;;4.61;94.42;92753.09;5112514;28;20180;-72
2023/12/11 00:38:06;;;;;;;14.33;12.97;;;;;;;4.73;94.02;92755.56;5111893;28;20219;-72
2023/12/11 00:40:31;;;;;;;16.80;15.23;;;;;;;4.62;94.30;92761.63;5110118;28;20207;-72
2023/12/11 00:42:57;;;;;;;15.70;14.20;;;;;;;4.54;95.23;92756.88;5112262;28;20790;-72
2023/12/11 00:45:22;;;;;;;15.97;14.47;;;;;;;4.55;95.47;92764.38;5113912;28;20188;-72
2023/12/11 00:47:47;;;;;;;15.73;14.37;;;;;;;4.57;95.28;92764.94;5113721;28;20224;-72
2023/12/11 00:50:13;;;;;;;16.30;14.90;;;;;;;4.53;94.95;92756.06;5113461;28;20195;-73
2023/12/11 00:52:38;;;;;;;15.03;13.73;;;;;;;4.63;94.89;92761.38;5113502;28;20254;-72
2023/12/11 00:55:04;;;;;;;16.03;14.73;;;;;;;4.52;94.54;92751.94;5113667;28;20196;-72
2023/12/11 00:57:30;;;;;;;16.70;15.17;;;;;;;4.45;95.64;92766.81;5113253;28;20172;-72
2023/12/11 00:59:55;;;;;;;16.10;14.67;;;;;;;4.41;96.14;92757.19;5113382;28;20241;-72
2023/12/11 01:02:20;;;;;;;15.87;14.30;;;;;;;4.33;96.30;92739.50;5113174;28;20188;-72
2023/12/11 01:04:46;;;;;;;15.50;14.00;;;;;;;4.55;95.35;92761.78;5113546;28;20175;-72
2023/12/11 01:07:11;;;;;;;17.03;15.23;;;;;;;4.47;95.43;92751.06;5113777;28;20218;-72
2023/12/11 01:09:37;;;;;;;15.10;13.90;;;;;;;4.42;96.15;92754.38;5118028;28;20243;-72
2023/12/11 01:12:03;;;;;;;14.77;13.37;;;;;;;4.47;95.60;92756.22;5108163;28;20205;-73
2023/12/11 01:14:28;;;;;;;15.20;13.87;;;;;;;4.52;95.16;92764.84;5112584;28;20208;-72
2023/12/11 01:16:53;;;;;;;15.17;13.97;;;;;;;4.39;94.93;92749.66;5113673;28;20294;-72
2023/12/11 01:19:19;;;;;;;15.43;14.10;;;;;;;4.36;95.10;92744.97;5113564;28;20208;-73
2023/12/11 01:21:45;;;;;;;15.00;13.73;;;;;;;4.36;95.58;92749.34;5113112;28;20227;-72
2023/12/11 01:24:11;;;;;;;16.60;14.93;;;;;;;4.45;95.62;92751.31;5112958;28;20227;-72
2023/12/11 01:26:37;;;;;;;15.80;14.33;;;;;;;4.24;95.64;92752.06;5112961;28;20176;-73
2023/12/11 01:29:03;;;;;;;16.43;14.83;;;;;;;4.19;96.40;92754.56;5109897;28;20224;-72
2023/12/11 01:31:28;;;;;;;15.37;13.83;;;;;;;4.17;95.85;92743.66;5112607;28;20211;-73
2023/12/11 01:33:53;;;;;;;16.73;15.17;;;;;;;3.90;96.62;92745.34;5112938;28;20239;-72
2023/12/11 01:36:19;;;;;;;16.17;14.87;;;;;;;3.66;97.79;92728.41;5112914;28;20252;-72
2023/12/11 01:38:44;;;;;;;16.30;14.90;;;;;;;3.85;97.57;92747.81;5112405;28;20897;-72
2023/12/11 01:41:10;;;;;;;16.47;15.07;;;;;;;3.59;98.53;92732.16;5111164;28;21021;-72
2023/12/11 01:43:35;;;;;;;15.30;13.90;;;;;;;3.73;98.08;92723.09;5115014;28;20310;-72
2023/12/11 01:46:00;;;;;;;15.17;13.77;;;;;;;3.88;97.67;92741.41;5113006;28;20188;-72
2023/12/11 01:48:27;;;;;;;15.83;14.57;;;;;;;3.97;96.79;92733.03;5112162;28;20717;-72
2023/12/11 01:50:52;;;;;;;12.77;11.93;;;;;;;4.02;96.89;92725.38;5113028;28;20191;-71
2023/12/11 01:53:18;;;;;;;15.53;14.13;;;;;;;4.00;96.57;92708.56;5110862;28;20216;-74
2023/12/11 01:55:46;;;;;;;14.30;13.20;;;;;;;4.02;96.98;92720.19;5112678;28;20203;-73
2023/12/11 01:58:12;;;;;;;14.83;13.53;;;;;;;4.11;96.47;92715.44;5111582;28;20287;-72
2023/12/11 02:00:37;;;;;;;16.13;14.73;;;;;;;4.07;96.71;92724.66;5112436;28;20195;-72
2023/12/11 02:03:03;;;;;;;15.30;14.00;;;;;;;3.86;97.21;92713.22;5112103;28;20257;-72
2023/12/11 02:05:28;;;;;;;15.33;14.13;;;;;;;3.91;97.18;92728.00;5112308;28;20244;-73
2023/12/11 02:07:54;;;;;;;14.67;13.53;;;;;;;4.06;97.50;92723.09;5112275;28;20223;-72
2023/12/11 02:10:19;;;;;;;14.40;13.40;;;;;;;4.12;96.16;92722.94;5114005;28;20200;-72
2023/12/11 02:12:44;;;;;;;13.87;12.37;;;;;;;4.10;97.09;92717.22;5111953;28;20250;-72
2023/12/11 02:15:10;;;;;;;13.93;12.80;;;;;;;4.00;97.42;92714.47;5112138;28;20188;-73
2023/12/11 02:17:35;;;;;;;12.70;11.70;;;;;;;4.09;97.46;92702.75;5112319;28;20206;-72
2023/12/11 02:20:01;;;;;;;14.23;13.13;;;;;;;4.51;94.77;92710.81;5106731;28;20179;-72
2023/12/11 02:22:26;;;;;;;12.70;12.00;;;;;;;4.18;95.54;92711.66;5107355;28;20192;-72
2023/12/11 02:24:58;;;;;;;12.20;11.20;;;;;;;4.13;95.35;92719.34;5112395;28;20244;-72
2023/12/11 02:27:25;;;;;;;11.50;10.87;;;;;;;4.19;95.52;92713.22;5103302;28;20191;-72
2023/12/11 02:29:53;;;;;;;12.90;12.00;;;;;;;3.94;95.57;92719.81;5094159;28;20180;-72
2023/12/11 02:32:19;;;;;;;12.10;11.40;;;;;;;3.89;95.99;92705.00;5112272;28;20221;-73
2023/12/11 02:34:47;;;;;;;12.00;11.30;;;;;;;3.94;96.63;92710.25;5111716;28;20188;-72
2023/12/11 02:37:13;;;;;;;11.40;10.70;;;;;;;3.78;97.10;92723.97;5111827;28;20178;-72
2023/12/11 02:39:38;;;;;;;11.50;10.90;;;;;;;3.77;96.24;92724.97;5111215;28;20234;-73
2023/12/11 02:42:04;;;;;;;10.23;9.73;;;;;;;3.70;96.62;92720.97;5114670;28;20219;-72
2023/12/11 02:44:29;;;;;;;12.33;11.63;;;;;;;3.80;96.16;92734.06;5110852;28;20311;-72
2023/12/11 02:46:54;;;;;;;10.83;10.23;;;;;;;3.68;95.79;92739.28;5111768;28;20198;-72
2023/12/11 02:49:20;;;;;;;10.17;9.57;;;;;;;3.67;96.24;92736.94;5111252;28;20224;-72
2023/12/11 02:51:45;;;;;;;11.03;10.50;;;;;;;3.68;96.26;92736.72;5101609;28;20184;-71
2023/12/11 02:54:10;;;;;;;11.20;10.50;;;;;;;3.56;97.54;92712.78;5111267;28;20249;-73
2023/12/11 02:56:42;;;;;;;11.33;10.73;;;;;;;3.72;96.48;92727.47;5111418;28;20176;-72
2023/12/11 02:59:07;;;;;;;12.07;11.37;;;;;;;3.71;96.76;92728.50;5110191;28;20216;-73
2023/12/11 03:01:37;;;;;;;11.03;10.43;;;;;;;3.77;96.68;92734.50;5111355;28;20250;-72
2023/12/11 03:04:03;;;;;;;11.07;10.47;;;;;;;4.04;96.49;92730.28;5110689;28;20219;-73
2023/12/11 03:06:29;;;;;;;11.47;10.77;;;;;;;4.37;94.70;92738.78;5110399;28;20176;-73
2023/12/11 03:08:54;;;;;;;10.93;10.23;;;;;;;4.46;93.60;92729.63;5109360;28;20232;-72
2023/12/11 03:11:20;;;;;;;11.80;11.10;;;;;;;4.58;92.87;92743.22;5111620;28;20217;-72
2023/12/11 03:13:45;;;;;;;11.87;11.27;;;;;;;4.64;92.24;92733.72;5110704;28;20295;-73
2023/12/11 03:16:15;;;;;;;11.33;10.53;;;;;;;4.80;91.67;92738.06;5111485;28;20187;-73
2023/12/11 03:18:41;;;;;;;12.27;11.57;;;;;;;4.62;92.18;92735.78;5110826;28;20273;-72
2023/12/11 03:21:06;;;;;;;11.57;10.90;;;;;;;4.59;92.87;92734.44;5110990;28;20212;-73
2023/12/11 03:23:32;;;;;;;11.87;11.17;;;;;;;4.59;93.40;92737.03;5110382;28;20286;-73
2023/12/11 03:25:57;;;;;;;12.67;11.77;;;;;;;4.58;93.40;92732.88;5093419;28;20191;-73
2023/12/11 03:28:24;;;;;;;13.37;12.57;;;;;;;4.43;94.67;92730.09;5110026;28;20235;-72
2023/12/11 03:30:50;;;;;;;12.27;11.47;;;;;;;4.52;94.59;92727.88;5110647;28;20248;-72
2023/12/11 03:33:16;;;;;;;12.07;11.27;;;;;;;4.28;95.67;92729.13;5107457;28;20228;-72
2023/12/11 03:35:41;;;;;;;12.20;11.30;;;;;;;4.28;95.88;92721.34;5110809;28;20187;-73
2023/12/11 03:38:06;;;;;;;12.27;11.57;;;;;;;4.16;95.75;92726.59;5110615;28;20231;-72
2023/12/11 03:40:32;;;;;;;11.50;10.80;;;;;;;4.03;96.42;92721.75;5110691;28;20208;-73
2023/12/11 03:42:58;;;;;;;12.33;11.33;;;;;;;4.16;95.93;92716.28;5092243;28;20224;-72
2023/12/11 03:45:23;;;;;;;12.93;12.03;;;;;;;4.11;94.85;92715.44;5110909;28;20187;-73
2023/12/11 03:47:49;;;;;;;13.53;12.53;;;;;;;4.03;95.89;92713.25;5109829;28;20234;-73
2023/12/11 03:50:14;;;;;;;12.87;11.87;;;;;;;3.94;96.15;92722.41;5110639;28;20227;-72
2023/12/11 03:52:40;;;;;;;13.50;12.40;;;;;;;3.79;96.36;92707.47;5109758;28;20283;-73
2023/12/11 03:55:06;;;;;;;13.30;12.20;;;;;;;3.80;96.47;92721.91;5110609;28;20218;-73
2023/12/11 03:57:31;;;;;;;12.23;11.43;;;;;;;3.62;97.30;92722.16;5109307;28;20176;-72
2023/12/11 03:59:57;;;;;;;13.43;12.13;;;;;;;3.44;97.65;92722.34;5109910;28;20283;-72
2023/12/11 04:02:22;;;;;;;12.60;11.70;;;;;;;3.35;97.74;92702.34;5109575;28;20180;-72
2023/12/11 04:04:47;;;;;;;12.33;11.53;;;;;;;3.46;98.00;92719.53;5110036;28;20214;-73
2023/12/11 04:07:13;;;;;;;14.03;13.13;;;;;;;3.24;97.80;92709.91;5109924;28;20199;-72
2023/12/11 04:09:39;;;;;;;11.70;11.07;;;;;;;3.31;99.34;92712.34;5109545;28;20215;-73
2023/12/11 04:12:04;;;;;;;10.80;10.20;;;;;;;3.29;98.69;92704.03;5110216;28;20195;-73
2023/12/11 04:14:30;;;;;;;12.17;11.47;;;;;;;3.01;98.40;92698.88;5110106;28;20223;-72
2023/12/11 04:16:55;;;;;;;11.80;11.17;;;;;;;3.15;99.30;92700.19;5091625;28;20192;-73
2023/12/11 04:19:20;;;;;;;11.53;10.80;;;;;;;3.25;98.31;92718.44;5109889;28;20255;-73
2023/12/11 04:21:46;;;;;;;12.43;11.70;;;;;;;3.08;98.51;92696.97;5109893;28;20324;-73
2023/12/11 04:24:11;;;;;;;11.23;10.43;;;;;;;3.25;99.30;92710.69;5109742;28;20262;-73
2023/12/11 04:26:37;;;;;;;11.80;11.10;;;;;;;3.09;99.57;92716.56;5109204;28;20202;-73
2023/12/11 04:29:02;;;;;;;11.93;11.23;;;;;;;3.01;99.22;92694.53;5098477;28;20214;-74
2023/12/11 04:31:28;;;;;;;12.73;11.73;;;;;;;3.21;98.64;92700.03;5109674;28;20176;-74
2023/12/11 04:33:53;;;;;;;12.30;11.47;;;;;;;2.98;99.21;92725.13;5109325;28;20230;-73
2023/12/11 04:36:18;;;;;;;13.10;12.27;;;;;;;2.73;100.00;92698.88;5109543;28;20183;-73
2023/12/11 04:38:44;;;;;;;12.13;11.33;;;;;;;3.10;99.32;92715.56;5108317;28;20240;-74
2023/12/11 04:41:09;;;;;;;13.70;12.70;;;;;;;3.21;99.32;92725.03;5089959;28;20227;-73
2023/12/11 04:43:34;;;;;;;12.93;11.93;;;;;;;3.08;98.76;92715.03;5121615;28;20224;-75
2023/12/11 04:46:00;;;;;;;13.70;12.60;;;;;;;2.94;98.60;92708.56;5081002;28;20184;-73
2023/12/11 04:48:26;;;;;;;12.50;11.70;;;;;;;3.00;99.14;92733.44;5107795;28;20215;-80
2023/12/11 04:50:51;;;;;;;12.37;11.47;;;;;;;3.08;99.10;92725.34;5110058;28;20188;-87
2023/12/11 04:53:17;;;;;;;12.53;11.73;;;;;;;3.00;99.00;92736.00;5109401;28;20224;-77
2023/12/11 04:55:42;;;;;;;11.90;11.30;;;;;;;2.92;99.92;92738.94;5104787;28;20183;-83
2023/12/11 04:58:07;;;;;;;10.83;10.23;;;;;;;2.92;100.00;92731.22;5108347;28;20231;-80
2023/12/11 05:00:33;;;;;;;13.60;12.50;;;;;;;3.03;98.98;92738.94;5108574;28;20297;-77
2023/12/11 05:02:58;;;;;;;12.40;11.70;;;;;;;2.75;98.79;92704.59;5108028;28;20235;-80
2023/12/11 05:05:23;;;;;;;14.77;13.47;;;;;;;2.42;100.00;92723.25;5108275;28;20188;-78
2023/12/11 05:07:49;;;;;;;15.00;13.57;;;;;;;2.65;100.00;92727.56;5107953;28;20223;-76
2023/12/11 05:10:14;;;;;;;13.40;12.40;;;;;;;2.73;100.00;92729.81;5108862;28;20212;-79
2023/12/11 05:12:40;;;;;;;12.80;11.77;;;;;;;2.83;100.00;92737.75;5108424;28;20229;-82
2023/12/11 05:15:06;;;;;;;12.33;11.53;;;;;;;2.73;100.00;92724.66;5109024;28;20279;-83
2023/12/11 05:17:31;;;;;;;12.90;11.97;;;;;;;2.81;100.00;92734.59;5108440;28;20176;-81
2023/12/11 05:19:56;;;;;;;13.20;12.27;;;;;;;2.78;100.00;92733.28;5109422;28;20180;-81
2023/12/11 05:22:22;;;;;;;12.17;11.37;;;;;;;2.89;100.00;92724.72;5108524;28;20192;-82
2023/12/11 05:24:49;;;;;;;12.33;11.43;;;;;;;2.84;100.00;92731.56;5109394;28;20198;-80
2023/12/11 05:27:15;;;;;;;11.27;10.67;;;;;;;2.86;100.00;92732.91;5108167;28;20204;-75
2023/12/11 05:29:41;;;;;;;11.70;11.00;;;;;;;3.00;100.00;92744.50;5100776;28;20239;-77
2023/12/11 05:32:06;;;;;;;13.47;12.57;;;;;;;3.08;100.00;92751.13;5105397;28;20222;-83
2023/12/11 05:34:31;;;;;;;14.67;13.47;;;;;;;2.79;100.00;92749.50;5111049;28;20222;-76
2023/12/11 05:36:57;;;;;;;13.87;12.77;;;;;;;3.15;100.00;92738.88;5112389;28;20222;-77
2023/12/11 05:39:22;;;;;;;15.50;14.23;;;;;;;3.53;99.63;92743.41;5093515;28;20291;-78
2023/12/11 05:41:48;;;;;;;14.80;13.60;;;;;;;3.58;98.05;92736.53;5102112;28;20210;-76
2023/12/11 05:44:13;;;;;;;13.87;12.83;;;;;;;3.89;100.00;92755.91;5112311;28;20231;-77
2023/12/11 05:46:38;;;;;;;14.90;13.27;;;;;;;4.11;100.00;92751.59;5111815;28;20214;-71
2023/12/11 05:49:04;;;;;;;17.13;15.60;;;;;;;4.11;100.00;92757.53;5111637;28;20212;-72
2023/12/11 05:51:30;;;;;;;17.70;15.40;;;;;;;4.02;98.75;92758.94;5111893;28;20213;-72
2023/12/11 05:53:55;;;;;;;18.67;16.83;;;;;;;3.98;98.55;92757.84;5111404;28;20276;-71
2023/12/11 05:56:21;;;;;;;18.30;16.40;;;;;;;3.87;98.28;92745.81;5092774;28;20187;-72
2023/12/11 05:58:46;;;;;;;17.87;16.07;;;;;;;4.09;97.52;92766.53;5109235;28;20223;-71
2023/12/11 06:01:12;;;;;;;18.37;16.27;;;;;;;4.17;96.70;92776.50;5109926;28;20218;-72
2023/12/11 06:03:37;;;;;;;18.17;16.30;;;;;;;4.27;96.43;92768.88;5109567;28;20288;-71
2023/12/11 06:06:03;;;;;;;16.77;15.07;;;;;;;4.29;96.22;92767.63;5110128;28;20662;-72
2023/12/11 06:08:29;;;;;;;14.80;13.23;;;;;;;4.36;96.24;92768.25;5109759;28;20289;-71
2023/12/11 06:10:54;;;;;;;16.50;14.93;;;;;;;4.34;96.40;92766.91;5111212;28;20196;-72
2023/12/11 06:13:19;;;;;;;20.33;14.80;;;;;;;4.21;96.83;92767.22;5110187;28;20254;-71
2023/12/11 06:15:45;;;;;;;14.57;13.27;;;;;;;4.39;96.12;92765.19;5110753;28;20221;-71
2023/12/11 06:18:11;;;;;;;16.10;14.73;;;;;;;4.39;96.58;92770.34;5110438;28;20239;-72
2023/12/11 06:20:36;;;;;;;17.93;15.20;;;;;;;4.40;96.31;92766.75;5110535;28;20216;-71
2023/12/11 06:23:02;;;;;;;15.13;13.83;;;;;;;4.49;96.20;92770.50;5110537;28;20223;-72
2023/12/11 06:25:27;;;;;;;14.97;13.67;;;;;;;4.03;96.20;92764.91;5111042;28;20191;-72
2023/12/11 06:27:53;;;;;;;17.17;15.43;;;;;;;4.57;95.42;92775.28;5110719;28;20231;-72
2023/12/11 06:30:18;;;;;;;16.03;14.50;;;;;;;4.81;94.32;92781.78;5092856;28;20214;-71
2023/12/11 06:32:44;;;;;;;16.60;15.03;;;;;;;4.97;93.18;92772.41;5110673;28;20241;-72
2023/12/11 06:35:09;;;;;;;17.50;15.80;;;;;;;5.07;93.00;92779.53;5110419;28;20191;-76
2023/12/11 06:37:34;;;;;;;15.00;13.63;;;;;;;5.00;92.77;92774.53;5076201;28;20231;-73
2023/12/11 06:40:00;;;;;;;15.93;14.73;;;;;;;4.75;93.11;92772.41;5110194;28;20189;-73
2023/12/11 06:42:26;;;;;;;15.33;13.90;;;;;;;4.88;92.68;92781.63;5113599;28;20192;-72
2023/12/11 06:44:53;;;;;;;14.27;13.27;;;;;;;4.67;94.08;92779.78;5111084;28;20184;-72
2023/12/11 06:47:18;;;;;;;15.67;14.53;;;;;;;4.73;94.33;92777.03;5111207;28;20242;-71
2023/12/11 06:49:46;;;;;;;15.07;13.87;;;;;;;4.73;94.67;92769.25;5097344;28;20192;-73
2023/12/11 06:52:12;;;;;;;15.30;13.77;;;;;;;4.86;94.28;92797.38;5110643;28;20192;-76
2023/12/11 06:54:38;;;;;;;15.30;13.97;;;;;;;4.94;93.07;92793.59;5109338;28;20226;-74
2023/12/11 06:57:04;;;;;;;15.57;14.37;;;;;;;5.01;93.45;92775.31;5101691;28;20193;-75
2023/12/11 06:59:30;;;;;;;14.23;12.97;;;;;;;5.23;92.92;92791.63;5110069;28;20248;-78
2023/12/11 07:01:55;;;;;;;15.47;14.10;;;;;;;5.45;91.86;92792.41;5110525;28;20211;-74
2023/12/11 07:04:20;;;;;;;15.83;14.10;;;;;;;5.50;90.94;92802.78;5107650;28;20224;-74
2023/12/11 07:06:46;;;;;;;17.30;15.57;;;;;;;5.63;90.68;92815.38;5110101;28;22084;-71
2023/12/11 07:09:11;;;;;;;22.67;18.23;;;;;;;5.70;89.52;92823.72;5110220;28;20219;-71
2023/12/11 07:11:37;;;;;;;23.60;18.10;;;;;;;5.77;89.62;92819.13;5110806;28;20200;-72
2023/12/11 07:14:02;;;;;;;23.13;17.40;;;;;;;5.79;90.16;92817.09;5110088;28;20250;-79
2023/12/11 07:16:27;;;;;;;24.80;18.33;;;;;;;5.80;89.56;92818.66;5110539;28;20545;-77
2023/12/11 07:18:53;;;;;;;19.80;16.33;;;;;;;5.87;90.16;92819.25;5109755;28;20223;-77
2023/12/11 07:21:18;;;;;;;28.43;18.23;;;;;;;5.97;89.72;92819.38;5110191;28;20878;-78
2023/12/11 07:23:44;;;;;;;19.90;16.53;;;;;;;6.07;89.44;92814.28;5110022;28;20220;-79
2023/12/11 07:26:10;;;;;;;16.47;15.17;;;;;;;6.25;88.86;92822.47;5110485;28;20190;-85
2023/12/11 07:28:36;;;;;;;12.47;11.63;;;;;;;6.46;87.14;92816.41;5106970;28;20220;-88
2023/12/11 07:31:03;;;;;;;15.03;13.93;;;;;;;6.51;86.69;92811.28;5106398;28;20194;-79
2023/12/11 07:33:28;;;;;;;14.50;13.40;;;;;;;6.60;86.67;92829.72;5105074;28;20223;-79
2023/12/11 07:35:54;;;;;;;14.63;13.53;;;;;;;6.74;84.89;92830.88;5106613;28;20195;-75
2023/12/11 07:38:19;;;;;;;14.53;13.23;;;;;;;6.75;84.85;92829.88;5109438;28;20220;-76
2023/12/11 07:40:44;;;;;;;15.03;13.70;;;;;;;6.61;83.36;92841.69;5109970;28;20220;-70
2023/12/11 07:43:11;;;;;;;17.80;15.93;;;;;;;6.47;84.54;92837.94;5122277;28;20224;-70
2023/12/11 07:45:37;;;;;;;18.60;16.80;;;;;;;6.62;84.47;92837.25;5109882;28;20194;-70
2023/12/11 07:48:03;;;;;;;15.93;14.53;;;;;;;6.68;83.98;92839.66;5109219;28;20220;-70
2023/12/11 07:50:28;;;;;;;19.17;17.27;;;;;;;6.71;83.75;92836.56;5109334;28;20210;-70
2023/12/11 07:52:54;;;;;;;17.17;15.40;;;;;;;6.54;81.72;92844.50;5108916;28;20216;-70
2023/12/11 07:55:19;;;;;;;16.10;14.90;;;;;;;6.49;82.09;92839.25;5109502;28;20243;-69
2023/12/11 07:57:45;;;;;;;15.03;13.73;;;;;;;6.10;83.02;92830.09;5108758;28;20227;-70
2023/12/11 08:00:11;;;;;;;16.00;14.60;;;;;;;6.35;83.12;92824.38;5109647;28;20188;-70
2023/12/11 08:02:37;;;;;;;15.20;13.90;;;;;;;6.39;83.95;92828.81;5109073;28;20265;-70
2023/12/11 08:05:03;;;;;;;14.83;13.70;;;;;;;6.16;83.98;92838.72;5109463;28;20180;-71
2023/12/11 08:07:29;;;;;;;14.83;13.77;;;;;;;6.48;83.15;92826.53;5091028;28;20180;-70
2023/12/11 08:09:54;;;;;;;14.07;12.77;;;;;;;6.65;81.02;92837.56;5110299;28;20180;-70
2023/12/11 08:12:19;;;;;;;15.90;14.43;;;;;;;6.75;81.36;92837.66;5110052;28;20196;-70
2023/12/11 08:14:45;;;;;;;15.57;14.37;;;;;;;6.56;80.26;92839.06;5110698;28;20204;-71
2023/12/11 08:17:11;;;;;;;14.70;13.47;;;;;;;6.65;79.10;92841.97;5110636;28;20183;-71
2023/12/11 08:19:36;;;;;;;15.40;14.17;;;;;;;6.52;79.91;92848.38;5109872;28;20220;-70
2023/12/11 08:22:03;;;;;;;18.03;14.90;;;;;;;6.47;81.28;92848.31;5109831;28;20308;-70
2023/12/11 08:24:28;;;;;;;15.80;14.20;;;;;;;6.61;81.57;92846.09;5109716;28;20257;-71
2023/12/11 08:26:54;;;;;;;16.23;14.00;;;;;;;6.60;81.75;92828.97;5109808;28;20417;-71
2023/12/11 08:29:21;;;;;;;12.30;11.30;;;;;;;6.36;80.68;92854.47;5109623;28;20224;-71
2023/12/11 08:31:47;;;;;;;15.17;13.83;;;;;;;6.57;82.88;92856.16;5109906;28;20211;-70
2023/12/11 08:34:12;;;;;;;16.00;14.40;;;;;;;6.96;81.67;92846.34;5091892;28;20219;-69
2023/12/11 08:36:37;;;;;;;15.43;14.13;;;;;;;6.87;80.42;92835.63;5109570;28;20248;-71
2023/12/11 08:39:03;;;;;;;15.13;13.90;;;;;;;6.85;80.68;92831.75;5109774;28;20230;-70
2023/12/11 08:41:28;;;;;;;15.43;13.73;;;;;;;6.74;78.18;92849.03;5111271;28;20233;-70
2023/12/11 08:43:55;;;;;;;14.33;13.33;;;;;;;6.18;81.04;92844.44;5111121;28;20219;-71
2023/12/11 08:46:20;;;;;;;14.23;12.97;;;;;;;6.49;81.10;92828.88;5109996;28;20192;-71
2023/12/11 08:48:46;;;;;;;14.80;13.50;;;;;;;6.37;81.97;92836.06;5109427;28;20227;-70
2023/12/11 08:51:11;;;;;;;14.17;13.27;;;;;;;6.47;80.96;92840.53;5109725;28;20208;-70
2023/12/11 08:53:37;;;;;;;14.73;13.37;;;;;;;6.69;80.46;92836.06;5101577;28;20224;-70
2023/12/11 08:56:02;;;;;;;14.93;13.73;;;;;;;6.71;80.53;92833.97;5109497;28;20183;-70
2023/12/11 08:58:28;;;;;;;14.30;13.10;;;;;;;6.65;80.68;92832.38;5109223;28;20287;-71
2023/12/11 09:00:53;;;;;;;14.00;12.70;;;;;;;6.67;80.87;92809.56;5109258;28;20226;-70
2023/12/11 09:03:19;;;;;;;14.10;13.00;;;;;;;6.86;80.28;92810.72;5110926;28;20224;-70
2023/12/11 09:05:44;;;;;;;15.47;14.07;;;;;;;6.87;80.60;92804.50;5113239;28;20211;-71
2023/12/11 09:08:09;;;;;;;15.80;14.57;;;;;;;6.75;81.23;92806.50;5113197;28;20310;-71
2023/12/11 09:10:40;;;;;;;16.43;15.03;;;;;;;6.75;80.36;92797.94;5113792;28;20187;-70
2023/12/11 09:13:06;;;;;;;17.00;13.70;;;;;;;6.90;80.00;92798.81;5113435;28;20215;-71
2023/12/11 09:15:31;;;;;;;16.17;14.63;;;;;;;6.69;81.11;92796.34;5113369;28;20974;-71
2023/12/11 09:17:56;;;;;;;20.57;15.43;;;;;;;6.83;81.21;92803.44;5112901;28;20740;-70
2023/12/11 09:20:22;;;;;;;15.13;13.83;;;;;;;6.28;82.44;92787.50;5113476;28;20282;-71
2023/12/11 09:22:47;;;;;;;14.53;13.03;;;;;;;6.78;81.28;92789.66;5113070;28;20270;-71
2023/12/11 09:25:13;;;;;;;14.87;13.67;;;;;;;6.70;81.49;92793.50;5113318;28;20253;-70
2023/12/11 09:27:39;;;;;;;13.87;12.87;;;;;;;6.54;81.30;92787.44;5094737;28;20257;-70
2023/12/11 09:30:10;;;;;;;14.23;12.97;;;;;;;6.42;83.24;92788.63;5113068;28;20214;-70
2023/12/11 09:32:36;;;;;;;14.30;13.33;;;;;;;6.61;82.23;92783.84;5112619;28;20263;-71
2023/12/11 09:35:02;;;;;;;13.03;12.10;;;;;;;6.37;81.94;92778.22;5112970;28;20185;-70
2023/12/11 09:37:28;;;;;;;14.57;13.13;;;;;;;6.33;82.66;92769.41;5112600;28;20171;-71
2023/12/11 09:39:53;;;;;;;15.13;14.03;;;;;;;6.66;81.75;92781.28;5112907;28;20186;-70
2023/12/11 09:42:19;;;;;;;15.17;13.97;;;;;;;6.62;80.96;92775.81;5121493;28;20211;-70
2023/12/11 09:44:47;;;;;;;15.10;13.83;;;;;;;6.86;80.95;92774.41;5116181;28;20192;-70
2023/12/11 09:47:13;;;;;;;15.37;13.97;;;;;;;7.03;79.34;92780.19;5112663;28;20180;-70
2023/12/11 09:49:38;;;;;;;15.97;14.60;;;;;;;7.01;80.48;92771.09;5108724;28;20254;-71
2023/12/11 09:52:04;;;;;;;16.23;14.77;;;;;;;7.11;79.47;92771.94;5112947;28;20200;-69
2023/12/11 09:54:29;;;;;;;13.90;12.77;;;;;;;7.34;79.25;92762.94;5111940;28;20231;-70
2023/12/11 09:56:57;;;;;;;15.37;13.97;;;;;;;7.24;78.23;92761.06;5113234;28;20192;-70
2023/12/11 09:59:22;;;;;;;14.77;13.63;;;;;;;6.92;80.41;92754.44;5111669;28;20225;-70
2023/12/11 10:01:49;;;;;;;12.37;11.37;;;;;;;6.74;78.99;92745.25;5112799;28;20219;-70
2023/12/11 10:04:14;;;;;;;15.13;13.77;;;;;;;7.20;77.84;92757.44;5111784;28;20219;-70
2023/12/11 10:06:40;;;;;;;13.50;12.20;;;;;;;7.24;77.02;92748.09;5104400;28;20210;-70
2023/12/11 10:09:05;;;;;;;14.73;13.50;;;;;;;7.41;76.94;92743.47;5097238;28;20246;-70
2023/12/11 10:11:31;;;;;;;13.73;12.73;;;;;;;7.42;76.38;92744.25;5113046;28;20627;-70
2023/12/11 10:14:11;;;;;;;12.97;12.07;;;;;;;7.24;78.11;92747.28;5111110;28;20386;-71
2023/12/11 10:16:37;;;;;;;14.63;13.33;;;;;;;7.31;76.83;92748.66;5111879;28;20188;-71
2023/12/11 10:19:02;;;;;;;13.13;12.17;;;;;;;7.26;75.60;92751.22;5108900;28;20220;-70
2023/12/11 10:21:39;;;;;;;14.40;13.30;;;;;;;7.39;74.51;92745.53;5107465;28;20248;-70
2023/12/11 10:24:06;;;;;;;13.27;12.37;;;;;;;7.33;74.54;92749.16;5111590;28;20227;-70
2023/12/11 10:26:35;;;;;;;14.00;12.77;;;;;;;7.14;77.38;92749.88;5109685;28;20244;-70
2023/12/11 10:29:17;;;;;;;14.27;13.13;;;;;;;6.93;76.96;92743.00;5111705;28;20288;-70
2023/12/11 10:31:43;;;;;;;12.60;11.70;;;;;;;6.62;79.17;92734.31;5111925;28;20179;-70
2023/12/11 10:34:08;;;;;;;12.90;11.93;;;;;;;6.93;77.88;92724.84;5111779;28;20280;-70
2023/12/11 10:36:34;;;;;;;14.00;13.10;;;;;;;6.81;78.44;92726.88;5111843;28;20271;-71
2023/12/11 10:39:08;;;;;;;13.53;12.40;;;;;;;7.18;78.07;92733.53;5111764;28;20243;-70
2023/12/11 10:41:34;;;;;;;12.67;11.77;;;;;;;6.89;78.56;92716.03;5106676;28;20234;-70
2023/12/11 10:43:59;;;;;;;13.53;12.53;;;;;;;7.08;78.08;92728.28;5122179;28;20230;-71
2023/12/11 10:46:25;;;;;;;13.73;12.73;;;;;;;6.81;79.13;92732.84;5111079;28;20184;-70
2023/12/11 10:48:51;;;;;;;14.10;13.20;;;;;;;6.47;78.75;92731.63;5111721;28;20234;-70
2023/12/11 10:51:17;;;;;;;12.20;11.40;;;;;;;6.93;77.73;92730.84;5111667;28;20881;-71
2023/12/11 10:53:44;;;;;;;14.37;13.20;;;;;;;7.22;76.07;92728.63;5111430;28;20208;-70
2023/12/11 10:56:10;;;;;;;14.40;13.03;;;;;;;7.24;75.83;92714.34;5111519;28;20188;-71
2023/12/11 10:58:35;;;;;;;13.93;12.83;;;;;;;7.51;74.79;92724.53;5110991;28;20228;-70
2023/12/11 11:01:01;;;;;;;14.70;13.53;;;;;;;7.26;76.50;92727.06;5108811;28;20230;-71
2023/12/11 11:03:29;;;;;;;14.07;12.67;;;;;;;7.36;76.96;92730.47;5105827;28;20253;-72
2023/12/11 11:05:56;;;;;;;13.33;12.13;;;;;;;7.50;76.86;92721.16;5111332;28;20180;-72
2023/12/11 11:08:24;;;;;;;18.50;11.93;;;;;;;7.63;74.06;92722.47;5110938;28;20216;-72
2023/12/11 11:11:14;;;;;;;12.93;11.77;;;;;;;7.34;73.55;92674.63;5110965;28;20203;-72
2023/12/11 11:14:09;;;;;;;12.60;11.30;;;;;;;7.55;74.47;92702.97;5110723;28;20212;-73
2023/12/11 11:16:57;;;;;;;12.77;11.63;;;;;;;7.33;76.45;92693.84;5074448;28;20192;-71
2023/12/11 11:19:27;;;;;;;14.03;11.90;;;;;;;6.99;77.50;92684.94;5092955;28;20223;-71